sensor_id;sensor_type;location;lat;lon;timestamp;pressure;altitude;pressure_sealevel;temperature;humidity
69257;BME280;56376;53.356;-1.748;2024-01-07T00:02:24;100318.56;;;3.77;100.00
69257;BME280;56376;53.356;-1.748;2024-01-07T00:04:52;100320.28;;;3.75;100.00
69257;BME280;56376;53.356;-1.748;2024-01-07T00:07:18;100314.25;;;3.76;100.00
69257;BME280;56376;53.356;-1.748;2024-01-07T00:09:43;100309.03;;;3.64;100.00
69257;BME280;56376;53.356;-1.748;2024-01-07T00:12:08;100320.25;;;3.63;100.00
69257;BME280;56376;53.356;-1.748;2024-01-07T00:14:34;100316.75;;;3.58;100.00
69257;BME280;56376;53.356;-1.748;2024-01-07T00:16:59;100315.91;;;3.59;100.00
69257;BME280;56376;53.356;-1.748;2024-01-07T00:19:25;100320.19;;;3.57;100.00
69257;BME280;56376;53.356;-1.748;2024-01-07T00:21:50;100321.06;;;3.54;100.00
69257;BME280;56376;53.356;-1.748;2024-01-07T00:24:17;100322.75;;;3.52;100.00
69257;BME280;56376;53.356;-1.748;2024-01-07T00:26:42;100323.63;;;3.53;100.00
69257;BME280;56376;53.356;-1.748;2024-01-07T00:29:07;100323.59;;;3.50;100.00
69257;BME280;56376;53.356;-1.748;2024-01-07T00:31:33;100327.91;;;3.49;100.00
69257;BME280;56376;53.356;-1.748;2024-01-07T00:33:58;100341.69;;;3.48;100.00
69257;BME280;56376;53.356;-1.748;2024-01-07T00:36:24;100339.06;;;3.45;100.00
69257;BME280;56376;53.356;-1.748;2024-01-07T00:38:49;100340.81;;;3.43;100.00
69257;BME280;56376;53.356;-1.748;2024-01-07T00:41:15;100339.06;;;3.40;100.00
69257;BME280;56376;53.356;-1.748;2024-01-07T00:43:41;100331.31;;;3.39;100.00
69257;BME280;56376;53.356;-1.748;2024-01-07T00:46:07;100337.31;;;3.36;100.00
69257;BME280;56376;53.356;-1.748;2024-01-07T00:48:32;100341.63;;;3.36;100.00
69257;BME280;56376;53.356;-1.748;2024-01-07T00:50:57;100343.34;;;3.35;100.00
69257;BME280;56376;53.356;-1.748;2024-01-07T00:53:23;100356.28;;;3.38;100.00
69257;BME280;56376;53.356;-1.748;2024-01-07T00:55:48;100358.00;;;3.38;100.00
69257;BME280;56376;53.356;-1.748;2024-01-07T00:58:14;100361.44;;;3.41;100.00
69257;BME280;56376;53.356;-1.748;2024-01-07T01:00:39;100357.16;;;3.40;100.00
69257;BME280;56376;53.356;-1.748;2024-01-07T01:03:05;100360.59;;;3.41;100.00
69257;BME280;56376;53.356;-1.748;2024-01-07T01:05:30;100360.56;;;3.39;100.00
69257;BME280;56376;53.356;-1.748;2024-01-07T01:07:56;100365.75;;;3.39;100.00
69257;BME280;56376;53.356;-1.748;2024-01-07T01:10:21;100368.31;;;3.39;100.00
69257;BME280;56376;53.356;-1.748;2024-01-07T01:12:47;100370.03;;;3.39;100.00
69257;BME280;56376;53.356;-1.748;2024-01-07T01:15:12;100375.22;;;3.40;100.00
69257;BME280;56376;53.356;-1.748;2024-01-07T01:17:38;100372.66;;;3.40;100.00
69257;BME280;56376;53.356;-1.748;2024-01-07T01:20:03;100377.81;;;3.42;100.00
69257;BME280;56376;53.356;-1.748;2024-01-07T01:22:29;100370.94;;;3.41;100.00
69257;BME280;56376;53.356;-1.748;2024-01-07T01:24:54;100371.81;;;3.43;100.00
69257;BME280;56376;53.356;-1.748;2024-01-07T01:27:21;100377.81;;;3.45;100.00
69257;BME280;56376;53.356;-1.748;2024-01-07T01:29:46;100372.69;;;3.48;100.00
69257;BME280;56376;53.356;-1.748;2024-01-07T01:32:12;100379.59;;;3.51;100.00
69257;BME280;56376;53.356;-1.748;2024-01-07T01:34:40;100378.72;;;3.52;100.00
69257;BME280;56376;53.356;-1.748;2024-01-07T01:37:05;100374.41;;;3.49;100.00
69257;BME280;56376;53.356;-1.748;2024-01-07T01:39:31;100388.25;;;3.56;100.00
69257;BME280;56376;53.356;-1.748;2024-01-07T01:41:56;100385.66;;;3.57;100.00
69257;BME280;56376;53.356;-1.748;2024-01-07T01:44:23;100382.22;;;3.58;100.00
69257;BME280;56376;53.356;-1.748;2024-01-07T01:46:48;100399.47;;;3.61;100.00
69257;BME280;56376;53.356;-1.748;2024-01-07T01:49:14;100379.63;;;3.58;100.00
69257;BME280;56376;53.356;-1.748;2024-01-07T01:51:40;100387.38;;;3.60;100.00
69257;BME280;56376;53.356;-1.748;2024-01-07T01:54:06;100390.84;;;3.60;100.00
69257;BME280;56376;53.356;-1.748;2024-01-07T01:56:32;100387.41;;;3.61;100.00
69257;BME280;56376;53.356;-1.748;2024-01-07T01:58:58;100393.44;;;3.65;100.00
69257;BME280;56376;53.356;-1.748;2024-01-07T02:01:24;100395.19;;;3.63;100.00
69257;BME280;56376;53.356;-1.748;2024-01-07T02:03:52;100411.53;;;3.65;100.00
69257;BME280;56376;53.356;-1.748;2024-01-07T02:06:19;100412.38;;;3.62;100.00
69257;BME280;56376;53.356;-1.748;2024-01-07T02:08:45;100414.13;;;3.63;100.00
69257;BME280;56376;53.356;-1.748;2024-01-07T02:11:18;100417.59;;;3.65;100.00
69257;BME280;56376;53.356;-1.748;2024-01-07T02:13:46;100417.56;;;3.67;100.00
69257;BME280;56376;53.356;-1.748;2024-01-07T02:16:12;100426.19;;;3.67;100.00
69257;BME280;56376;53.356;-1.748;2024-01-07T02:18:38;100428.78;;;3.69;100.00
69257;BME280;56376;53.356;-1.748;2024-01-07T02:21:06;100431.41;;;3.71;100.00
69257;BME280;56376;53.356;-1.748;2024-01-07T02:23:32;100421.03;;;3.69;100.00
69257;BME280;56376;53.356;-1.748;2024-01-07T02:25:58;100426.19;;;3.69;100.00
69257;BME280;56376;53.356;-1.748;2024-01-07T02:28:23;100427.91;;;3.70;100.00
69257;BME280;56376;53.356;-1.748;2024-01-07T02:30:48;100435.69;;;3.72;100.00
69257;BME280;56376;53.356;-1.748;2024-01-07T02:33:14;100433.97;;;3.72;100.00
69257;BME280;56376;53.356;-1.748;2024-01-07T02:35:39;100436.56;;;3.74;100.00
69257;BME280;56376;53.356;-1.748;2024-01-07T02:38:05;100435.72;;;3.73;100.00
69257;BME280;56376;53.356;-1.748;2024-01-07T02:40:30;100439.13;;;3.72;100.00
69257;BME280;56376;53.356;-1.748;2024-01-07T02:42:56;100441.72;;;3.75;100.00
69257;BME280;56376;53.356;-1.748;2024-01-07T02:45:22;100446.00;;;3.70;100.00
69257;BME280;56376;53.356;-1.748;2024-01-07T02:47:47;100451.16;;;3.70;100.00
69257;BME280;56376;53.356;-1.748;2024-01-07T02:50:13;100449.44;;;3.66;100.00
69257;BME280;56376;53.356;-1.748;2024-01-07T02:52:38;100448.59;;;3.65;100.00
69257;BME280;56376;53.356;-1.748;2024-01-07T02:55:04;100459.78;;;3.67;100.00
69257;BME280;56376;53.356;-1.748;2024-01-07T02:57:30;100452.88;;;3.65;100.00
69257;BME280;56376;53.356;-1.748;2024-01-07T02:59:55;100450.28;;;3.65;100.00
69257;BME280;56376;53.356;-1.748;2024-01-07T03:02:20;100443.38;;;3.62;100.00
69257;BME280;56376;53.356;-1.748;2024-01-07T03:04:46;100456.31;;;3.64;100.00
69257;BME280;56376;53.356;-1.748;2024-01-07T03:07:11;100462.34;;;3.64;100.00
69257;BME280;56376;53.356;-1.748;2024-01-07T03:09:36;100463.19;;;3.65;100.00
69257;BME280;56376;53.356;-1.748;2024-01-07T03:12:02;100455.44;;;3.65;100.00
69257;BME280;56376;53.356;-1.748;2024-01-07T03:14:28;100460.63;;;3.63;100.00
69257;BME280;56376;53.356;-1.748;2024-01-07T03:16:53;100458.03;;;3.62;100.00
69257;BME280;56376;53.356;-1.748;2024-01-07T03:19:18;100467.53;;;3.67;100.00
69257;BME280;56376;53.356;-1.748;2024-01-07T03:21:44;100458.03;;;3.65;100.00
69257;BME280;56376;53.356;-1.748;2024-01-07T03:24:10;100477.00;;;3.65;100.00
69257;BME280;56376;53.356;-1.748;2024-01-07T03:26:35;100478.75;;;3.68;100.00
69257;BME280;56376;53.356;-1.748;2024-01-07T03:29:01;100473.59;;;3.68;100.00
69257;BME280;56376;53.356;-1.748;2024-01-07T03:31:27;100482.19;;;3.68;100.00
69257;BME280;56376;53.356;-1.748;2024-01-07T03:34:12;100485.63;;;3.69;100.00
69257;BME280;56376;53.356;-1.748;2024-01-07T03:36:38;100485.63;;;3.69;100.00
69257;BME280;56376;53.356;-1.748;2024-01-07T03:39:03;100489.03;;;3.65;100.00
69257;BME280;56376;53.356;-1.748;2024-01-07T03:41:28;100493.34;;;3.64;100.00
69257;BME280;56376;53.356;-1.748;2024-01-07T03:43:58;100495.97;;;3.66;100.00
69257;BME280;56376;53.356;-1.748;2024-01-07T03:46:23;100503.69;;;3.63;100.00
69257;BME280;56376;53.356;-1.748;2024-01-07T03:48:49;100501.06;;;3.60;100.00
69257;BME280;56376;53.356;-1.748;2024-01-07T03:51:14;100502.81;;;3.61;100.00
69257;BME280;56376;53.356;-1.748;2024-01-07T03:53:40;100500.19;;;3.59;100.00
69257;BME280;56376;53.356;-1.748;2024-01-07T03:56:05;100499.38;;;3.60;100.00
69257;BME280;56376;53.356;-1.748;2024-01-07T03:58:31;100510.50;;;3.55;100.00
69257;BME280;56376;53.356;-1.748;2024-01-07T04:00:56;100511.34;;;3.52;100.00
69257;BME280;56376;53.356;-1.748;2024-01-07T04:03:22;100514.75;;;3.48;100.00
69257;BME280;56376;53.356;-1.748;2024-01-07T04:05:47;100523.38;;;3.52;100.00
69257;BME280;56376;53.356;-1.748;2024-01-07T04:08:12;100516.53;;;3.54;100.00
69257;BME280;56376;53.356;-1.748;2024-01-07T04:10:38;100515.66;;;3.53;100.00
69257;BME280;56376;53.356;-1.748;2024-01-07T04:13:04;100521.69;;;3.55;100.00
69257;BME280;56376;53.356;-1.748;2024-01-07T04:15:30;100526.00;;;3.53;100.00
69257;BME280;56376;53.356;-1.748;2024-01-07T04:17:55;100527.69;;;3.51;100.00
69257;BME280;56376;53.356;-1.748;2024-01-07T04:20:21;100534.59;;;3.52;100.00
69257;BME280;56376;53.356;-1.748;2024-01-07T04:22:46;100519.94;;;3.51;100.00
69257;BME280;56376;53.356;-1.748;2024-01-07T04:25:12;100527.69;;;3.53;100.00
69257;BME280;56376;53.356;-1.748;2024-01-07T04:27:38;100535.44;;;3.51;100.00
69257;BME280;56376;53.356;-1.748;2024-01-07T04:30:05;100538.00;;;3.50;100.00
69257;BME280;56376;53.356;-1.748;2024-01-07T04:32:31;100538.00;;;3.50;100.00
69257;BME280;56376;53.356;-1.748;2024-01-07T04:34:59;100540.59;;;3.48;100.00
69257;BME280;56376;53.356;-1.748;2024-01-07T04:37:25;100534.53;;;3.47;100.00
69257;BME280;56376;53.356;-1.748;2024-01-07T04:39:50;100538.84;;;3.45;100.00
69257;BME280;56376;53.356;-1.748;2024-01-07T04:42:17;100537.09;;;3.44;100.00
69257;BME280;56376;53.356;-1.748;2024-01-07T04:44:43;100537.94;;;3.42;100.00
69257;BME280;56376;53.356;-1.748;2024-01-07T04:47:25;100538.81;;;3.42;100.00
69257;BME280;56376;53.356;-1.748;2024-01-07T04:49:52;100550.84;;;3.42;100.00
69257;BME280;56376;53.356;-1.748;2024-01-07T04:52:17;100547.38;;;3.40;100.00
69257;BME280;56376;53.356;-1.748;2024-01-07T04:54:43;100540.53;;;3.40;100.00
69257;BME280;56376;53.356;-1.748;2024-01-07T04:57:08;100550.00;;;3.41;100.00
69257;BME280;56376;53.356;-1.748;2024-01-07T04:59:33;100544.84;;;3.41;100.00
69257;BME280;56376;53.356;-1.748;2024-01-07T05:01:59;100548.22;;;3.37;100.00
69257;BME280;56376;53.356;-1.748;2024-01-07T05:04:24;100554.28;;;3.39;100.00
69257;BME280;56376;53.356;-1.748;2024-01-07T05:06:50;100544.72;;;3.32;100.00
69257;BME280;56376;53.356;-1.748;2024-01-07T05:09:15;100550.78;;;3.34;100.00
69257;BME280;56376;53.356;-1.748;2024-01-07T05:11:40;100550.75;;;3.31;100.00
69257;BME280;56376;53.356;-1.748;2024-01-07T05:14:07;100547.25;;;3.24;100.00
69257;BME280;56376;53.356;-1.748;2024-01-07T05:16:32;100552.44;;;3.26;100.00
69257;BME280;56376;53.356;-1.748;2024-01-07T05:18:58;100553.31;;;3.28;100.00
69257;BME280;56376;53.356;-1.748;2024-01-07T05:21:23;100554.16;;;3.25;100.00
69257;BME280;56376;53.356;-1.748;2024-01-07T05:23:51;100548.16;;;3.28;100.00
69257;BME280;56376;53.356;-1.748;2024-01-07T05:26:17;100553.28;;;3.27;100.00
69257;BME280;56376;53.356;-1.748;2024-01-07T05:28:42;100562.81;;;3.31;100.00
69257;BME280;56376;53.356;-1.748;2024-01-07T05:31:17;100576.59;;;3.31;100.00
69257;BME280;56376;53.356;-1.748;2024-01-07T05:33:45;100567.97;;;3.29;100.00
69257;BME280;56376;53.356;-1.748;2024-01-07T05:36:11;100571.41;;;3.30;100.00
69257;BME280;56376;53.356;-1.748;2024-01-07T05:38:37;100578.31;;;3.32;100.00
69257;BME280;56376;53.356;-1.748;2024-01-07T05:41:02;100571.41;;;3.30;100.00
69257;BME280;56376;53.356;-1.748;2024-01-07T05:43:29;100573.13;;;3.29;100.00
69257;BME280;56376;53.356;-1.748;2024-01-07T05:45:54;100582.63;;;3.30;100.00
69257;BME280;56376;53.356;-1.748;2024-01-07T05:48:22;100579.16;;;3.30;100.00
69257;BME280;56376;53.356;-1.748;2024-01-07T05:50:48;100583.44;;;3.29;100.00
69257;BME280;56376;53.356;-1.748;2024-01-07T05:53:33;100580.03;;;3.32;100.00
69257;BME280;56376;53.356;-1.748;2024-01-07T05:55:59;100584.34;;;3.31;100.00
69257;BME280;56376;53.356;-1.748;2024-01-07T05:58:25;100591.19;;;3.28;100.00
69257;BME280;56376;53.356;-1.748;2024-01-07T06:00:50;100594.63;;;3.28;100.00
69257;BME280;56376;53.356;-1.748;2024-01-07T06:03:15;100600.63;;;3.25;100.00
69257;BME280;56376;53.356;-1.748;2024-01-07T06:05:41;100609.28;;;3.28;100.00
69257;BME280;56376;53.356;-1.748;2024-01-07T06:08:06;100604.97;;;3.30;100.00
69257;BME280;56376;53.356;-1.748;2024-01-07T06:10:32;100602.38;;;3.30;100.00
69257;BME280;56376;53.356;-1.748;2024-01-07T06:12:57;100616.22;;;3.33;100.00
69257;BME280;56376;53.356;-1.748;2024-01-07T06:15:23;100609.28;;;3.32;100.00
69257;BME280;56376;53.356;-1.748;2024-01-07T06:17:48;100607.63;;;3.37;100.00
69257;BME280;56376;53.356;-1.748;2024-01-07T06:20:14;100615.31;;;3.31;100.00
69257;BME280;56376;53.356;-1.748;2024-01-07T06:22:39;100613.56;;;3.29;100.00
69257;BME280;56376;53.356;-1.748;2024-01-07T06:25:07;100617.88;;;3.28;100.00
69257;BME280;56376;53.356;-1.748;2024-01-07T06:27:32;100625.59;;;3.27;100.00
69257;BME280;56376;53.356;-1.748;2024-01-07T06:29:58;100626.47;;;3.25;100.00
69257;BME280;56376;53.356;-1.748;2024-01-07T06:32:23;100634.22;;;3.25;100.00
69257;BME280;56376;53.356;-1.748;2024-01-07T06:34:51;100629.88;;;3.23;100.00
69257;BME280;56376;53.356;-1.748;2024-01-07T06:37:17;100632.47;;;3.24;100.00
69257;BME280;56376;53.356;-1.748;2024-01-07T06:39:43;100634.22;;;3.25;100.00
69257;BME280;56376;53.356;-1.748;2024-01-07T06:42:08;100634.13;;;3.19;100.00
69257;BME280;56376;53.356;-1.748;2024-01-07T06:44:34;100644.47;;;3.21;100.00
69257;BME280;56376;53.356;-1.748;2024-01-07T06:47:00;100644.44;;;3.18;100.00
69257;BME280;56376;53.356;-1.748;2024-01-07T06:49:25;100650.47;;;3.18;100.00
69257;BME280;56376;53.356;-1.748;2024-01-07T06:51:51;100655.63;;;3.15;100.00
69257;BME280;56376;53.356;-1.748;2024-01-07T06:54:17;100665.97;;;3.20;100.00
69257;BME280;56376;53.356;-1.748;2024-01-07T06:56:43;100665.94;;;3.17;100.00
69257;BME280;56376;53.356;-1.748;2024-01-07T06:59:08;100668.53;;;3.15;100.00
69257;BME280;56376;53.356;-1.748;2024-01-07T07:01:35;100670.22;;;3.15;100.00
69257;BME280;56376;53.356;-1.748;2024-01-07T07:04:00;100680.59;;;3.18;100.00
69257;BME280;56376;53.356;-1.748;2024-01-07T07:06:26;100665.03;;;3.15;100.00
69257;BME280;56376;53.356;-1.748;2024-01-07T07:08:51;100672.81;;;3.16;100.00
69257;BME280;56376;53.356;-1.748;2024-01-07T07:11:16;100679.72;;;3.16;100.00
69257;BME280;56376;53.356;-1.748;2024-01-07T07:13:43;100685.69;;;3.15;100.00
69257;BME280;56376;53.356;-1.748;2024-01-07T07:16:08;100691.69;;;3.12;100.00
69257;BME280;56376;53.356;-1.748;2024-01-07T07:18:34;100687.41;;;3.14;100.00
69257;BME280;56376;53.356;-1.748;2024-01-07T07:20:59;100690.00;;;3.13;100.00
69257;BME280;56376;53.356;-1.748;2024-01-07T07:23:25;100692.56;;;3.11;100.00
69257;BME280;56376;53.356;-1.748;2024-01-07T07:25:50;100681.38;;;3.12;100.00
69257;BME280;56376;53.356;-1.748;2024-01-07T07:28:16;100701.19;;;3.13;100.00
69257;BME280;56376;53.356;-1.748;2024-01-07T07:30:42;100704.59;;;3.12;100.00
69257;BME280;56376;53.356;-1.748;2024-01-07T07:33:08;100713.25;;;3.13;100.00
69257;BME280;56376;53.356;-1.748;2024-01-07T07:35:33;100706.31;;;3.12;100.00
69257;BME280;56376;53.356;-1.748;2024-01-07T07:37:58;100712.34;;;3.12;100.00
69257;BME280;56376;53.356;-1.748;2024-01-07T07:40:24;100708.03;;;3.11;100.00
69257;BME280;56376;53.356;-1.748;2024-01-07T07:42:49;100713.25;;;3.13;100.00
69257;BME280;56376;53.356;-1.748;2024-01-07T07:45:15;100716.66;;;3.10;100.00
69257;BME280;56376;53.356;-1.748;2024-01-07T07:47:40;100713.19;;;3.08;100.00
69257;BME280;56376;53.356;-1.748;2024-01-07T07:50:10;100732.16;;;3.10;100.00
69257;BME280;56376;53.356;-1.748;2024-01-07T07:52:35;100735.56;;;3.09;100.00
69257;BME280;56376;53.356;-1.748;2024-01-07T07:55:03;100735.53;;;3.06;100.00
69257;BME280;56376;53.356;-1.748;2024-01-07T07:57:28;100745.88;;;3.09;100.00
69257;BME280;56376;53.356;-1.748;2024-01-07T07:59:54;100739.00;;;3.10;100.00
69257;BME280;56376;53.356;-1.748;2024-01-07T08:02:20;100745.06;;;3.10;100.00
69257;BME280;56376;53.356;-1.748;2024-01-07T08:04:47;100739.88;;;3.12;100.00
69257;BME280;56376;53.356;-1.748;2024-01-07T08:07:12;100746.75;;;3.10;100.00
69257;BME280;56376;53.356;-1.748;2024-01-07T08:09:38;100768.28;;;3.10;100.00
69257;BME280;56376;53.356;-1.748;2024-01-07T08:12:06;100761.41;;;3.11;100.00
69257;BME280;56376;53.356;-1.748;2024-01-07T08:14:33;100765.66;;;3.09;100.00
69257;BME280;56376;53.356;-1.748;2024-01-07T08:16:59;100765.63;;;3.07;100.00
69257;BME280;56376;53.356;-1.748;2024-01-07T08:19:24;100770.84;;;3.09;100.00
69257;BME280;56376;53.356;-1.748;2024-01-07T08:21:50;100774.31;;;3.11;100.00
69257;BME280;56376;53.356;-1.748;2024-01-07T08:24:15;100774.31;;;3.11;100.00
69257;BME280;56376;53.356;-1.748;2024-01-07T08:26:40;100777.75;;;3.11;100.00
69257;BME280;56376;53.356;-1.748;2024-01-07T08:29:06;100776.00;;;3.09;100.00
69257;BME280;56376;53.356;-1.748;2024-01-07T08:31:31;100781.19;;;3.12;100.00
69257;BME280;56376;53.356;-1.748;2024-01-07T08:33:58;100781.19;;;3.12;100.00
69257;BME280;56376;53.356;-1.748;2024-01-07T08:36:24;100789.81;;;3.11;100.00
69257;BME280;56376;53.356;-1.748;2024-01-07T08:38:49;100790.63;;;3.10;100.00
69257;BME280;56376;53.356;-1.748;2024-01-07T08:41:15;100793.22;;;3.10;100.00
69257;BME280;56376;53.356;-1.748;2024-01-07T08:43:41;100800.94;;;3.10;100.00
69257;BME280;56376;53.356;-1.748;2024-01-07T08:46:07;100794.06;;;3.09;100.00
69257;BME280;56376;53.356;-1.748;2024-01-07T08:48:32;100798.38;;;3.10;100.00
69257;BME280;56376;53.356;-1.748;2024-01-07T08:50:58;100800.94;;;3.10;100.00
69257;BME280;56376;53.356;-1.748;2024-01-07T08:53:24;100808.72;;;3.11;100.00
69257;BME280;56376;53.356;-1.748;2024-01-07T08:55:50;100811.31;;;3.11;100.00
69257;BME280;56376;53.356;-1.748;2024-01-07T08:58:16;100809.59;;;3.10;100.00
69257;BME280;56376;53.356;-1.748;2024-01-07T09:00:42;100808.72;;;3.11;100.00
69257;BME280;56376;53.356;-1.748;2024-01-07T09:03:09;100819.09;;;3.13;100.00
69257;BME280;56376;53.356;-1.748;2024-01-07T09:05:35;100811.31;;;3.11;100.00
69257;BME280;56376;53.356;-1.748;2024-01-07T09:08:00;100804.41;;;3.09;100.00
69257;BME280;56376;53.356;-1.748;2024-01-07T09:10:26;100817.31;;;3.09;100.00
69257;BME280;56376;53.356;-1.748;2024-01-07T09:12:52;100814.75;;;3.10;100.00
69257;BME280;56376;53.356;-1.748;2024-01-07T09:15:19;100819.03;;;3.08;100.00
69257;BME280;56376;53.356;-1.748;2024-01-07T09:17:45;100819.00;;;3.07;100.00
69257;BME280;56376;53.356;-1.748;2024-01-07T09:20:11;100818.13;;;3.06;100.00
69257;BME280;56376;53.356;-1.748;2024-01-07T09:22:37;100815.56;;;3.08;100.00
69257;BME280;56376;53.356;-1.748;2024-01-07T09:25:04;100819.03;;;3.08;100.00
69257;BME280;56376;53.356;-1.748;2024-01-07T09:27:30;100823.31;;;3.09;100.00
69257;BME280;56376;53.356;-1.748;2024-01-07T09:29:56;100821.56;;;3.07;100.00
69257;BME280;56376;53.356;-1.748;2024-01-07T09:32:21;100837.06;;;3.07;100.00
69257;BME280;56376;53.356;-1.748;2024-01-07T09:34:48;100825.91;;;3.08;100.00
69257;BME280;56376;53.356;-1.748;2024-01-07T09:37:13;100831.06;;;3.09;100.00
69257;BME280;56376;53.356;-1.748;2024-01-07T09:39:40;100832.84;;;3.12;100.00
69257;BME280;56376;53.356;-1.748;2024-01-07T09:42:15;100840.56;;;3.12;100.00
69257;BME280;56376;53.356;-1.748;2024-01-07T09:45:01;100844.91;;;3.13;100.00
69257;BME280;56376;53.356;-1.748;2024-01-07T09:47:27;100839.78;;;3.16;100.00
69257;BME280;56376;53.356;-1.748;2024-01-07T09:49:52;100846.72;;;3.20;100.00
69257;BME280;56376;53.356;-1.748;2024-01-07T09:52:19;100848.44;;;3.18;100.00
69257;BME280;56376;53.356;-1.748;2024-01-07T09:54:49;100842.38;;;3.17;100.00
69257;BME280;56376;53.356;-1.748;2024-01-07T09:57:16;100851.91;;;3.21;100.00
69257;BME280;56376;53.356;-1.748;2024-01-07T09:59:41;100854.50;;;3.21;100.00
69257;BME280;56376;53.356;-1.748;2024-01-07T10:02:07;100863.09;;;3.20;100.00
69257;BME280;56376;53.356;-1.748;2024-01-07T10:04:33;100868.28;;;3.22;100.00
69257;BME280;56376;53.356;-1.748;2024-01-07T10:06:59;100875.16;;;3.21;100.00
69257;BME280;56376;53.356;-1.748;2024-01-07T10:09:28;100871.66;;;3.18;100.00
69257;BME280;56376;53.356;-1.748;2024-01-07T10:11:54;100867.38;;;3.18;100.00
69257;BME280;56376;53.356;-1.748;2024-01-07T10:14:19;100876.88;;;3.21;100.00
69257;BME280;56376;53.356;-1.748;2024-01-07T10:16:49;100882.94;;;3.23;100.00
69257;BME280;56376;53.356;-1.748;2024-01-07T10:19:22;100882.13;;;3.25;100.00
69257;BME280;56376;53.356;-1.748;2024-01-07T10:21:59;100893.34;;;3.29;100.00
69257;BME280;56376;53.356;-1.748;2024-01-07T10:24:25;100887.34;;;3.32;100.00
69257;BME280;56376;53.356;-1.748;2024-01-07T10:26:50;100887.41;;;3.35;100.00
69257;BME280;56376;53.356;-1.748;2024-01-07T10:29:16;100890.00;;;3.36;100.00
69257;BME280;56376;53.356;-1.748;2024-01-07T10:31:41;100890.88;;;3.35;100.00
69257;BME280;56376;53.356;-1.748;2024-01-07T10:34:09;100884.06;;;3.40;100.00
69257;BME280;56376;53.356;-1.748;2024-01-07T10:36:35;100881.44;;;3.39;100.00
69257;BME280;56376;53.356;-1.748;2024-01-07T10:39:00;100894.31;;;3.36;100.00
69257;BME280;56376;53.356;-1.748;2024-01-07T10:41:26;100891.75;;;3.37;100.00
69257;BME280;56376;53.356;-1.748;2024-01-07T10:43:52;100892.56;;;3.33;100.00
69257;BME280;56376;53.356;-1.748;2024-01-07T10:46:17;100899.47;;;3.36;100.00
69257;BME280;56376;53.356;-1.748;2024-01-07T10:49:16;100894.34;;;3.39;100.00
69257;BME280;56376;53.356;-1.748;2024-01-07T10:51:45;100897.81;;;3.39;100.00
69257;BME280;56376;53.356;-1.748;2024-01-07T10:54:13;100903.78;;;3.37;100.00
69257;BME280;56376;53.356;-1.748;2024-01-07T10:56:42;100897.72;;;3.35;100.00
69257;BME280;56376;53.356;-1.748;2024-01-07T10:59:10;100895.13;;;3.33;100.00
69257;BME280;56376;53.356;-1.748;2024-01-07T11:01:36;100897.66;;;3.29;100.00
69257;BME280;56376;53.356;-1.748;2024-01-07T11:06:56;100888.19;;;3.29;100.00
69257;BME280;56376;53.356;-1.748;2024-01-07T11:09:47;100895.09;;;3.30;100.00
69257;BME280;56376;53.356;-1.748;2024-01-07T11:12:16;100902.88;;;3.33;100.00
69257;BME280;56376;53.356;-1.748;2024-01-07T11:14:43;100897.72;;;3.35;100.00
69257;BME280;56376;53.356;-1.748;2024-01-07T11:20:22;100905.44;;;3.30;100.00
69257;BME280;56376;53.356;-1.748;2024-01-07T11:22:51;100904.56;;;3.31;100.00
69257;BME280;56376;53.356;-1.748;2024-01-07T11:25:30;100908.88;;;3.31;100.00
69257;BME280;56376;53.356;-1.748;2024-01-07T11:27:57;100902.00;;;3.31;100.00
69257;BME280;56376;53.356;-1.748;2024-01-07T11:30:22;100907.19;;;3.34;100.00
69257;BME280;56376;53.356;-1.748;2024-01-07T11:32:48;100914.91;;;3.31;100.00
69257;BME280;56376;53.356;-1.748;2024-01-07T11:36:13;100908.03;;;3.32;100.00
69257;BME280;56376;53.356;-1.748;2024-01-07T11:38:31;100907.16;;;3.31;100.00
69257;BME280;56376;53.356;-1.748;2024-01-07T11:40:57;100910.63;;;3.33;100.00
69257;BME280;56376;53.356;-1.748;2024-01-07T11:43:25;100914.03;;;3.32;100.00
69257;BME280;56376;53.356;-1.748;2024-01-07T11:45:50;100917.44;;;3.30;100.00
69257;BME280;56376;53.356;-1.748;2024-01-07T11:48:19;100923.44;;;3.27;100.00
69257;BME280;56376;53.356;-1.748;2024-01-07T11:50:45;100918.28;;;3.27;100.00
69257;BME280;56376;53.356;-1.748;2024-01-07T11:53:12;100910.47;;;3.24;100.00
69257;BME280;56376;53.356;-1.748;2024-01-07T11:55:38;100920.00;;;3.27;100.00
69257;BME280;56376;53.356;-1.748;2024-01-07T11:58:04;100919.97;;;3.25;100.00
69257;BME280;56376;53.356;-1.748;2024-01-07T12:00:33;100920.78;;;3.21;100.00
69257;BME280;56376;53.356;-1.748;2024-01-07T12:03:02;100919.91;;;3.22;100.00
69257;BME280;56376;53.356;-1.748;2024-01-07T12:05:28;100928.56;;;3.24;100.00
69257;BME280;56376;53.356;-1.748;2024-01-07T12:07:53;100921.63;;;3.21;100.00
69257;BME280;56376;53.356;-1.748;2024-01-07T12:10:19;100921.63;;;3.21;100.00
69257;BME280;56376;53.356;-1.748;2024-01-07T12:12:45;100919.00;;;3.20;100.00
69257;BME280;56376;53.356;-1.748;2024-01-07T12:15:10;100915.59;;;3.21;100.00
69257;BME280;56376;53.356;-1.748;2024-01-07T12:17:40;100920.78;;;3.22;100.00
69257;BME280;56376;53.356;-1.748;2024-01-07T12:20:06;100919.94;;;3.23;100.00
69257;BME280;56376;53.356;-1.748;2024-01-07T12:22:32;100925.13;;;3.23;100.00
69257;BME280;56376;53.356;-1.748;2024-01-07T12:25:07;100913.94;;;3.24;100.00
69257;BME280;56376;53.356;-1.748;2024-01-07T12:27:34;100918.28;;;3.25;100.00
69257;BME280;56376;53.356;-1.748;2024-01-07T12:30:01;100920.84;;;3.27;100.00
69257;BME280;56376;53.356;-1.748;2024-01-07T12:32:27;100919.16;;;3.28;100.00
69257;BME280;56376;53.356;-1.748;2024-01-07T12:34:52;100917.44;;;3.30;100.00
69257;BME280;56376;53.356;-1.748;2024-01-07T12:37:18;100912.31;;;3.31;100.00
69257;BME280;56376;53.356;-1.748;2024-01-07T12:39:44;100914.94;;;3.34;100.00
69257;BME280;56376;53.356;-1.748;2024-01-07T12:42:09;100917.56;;;3.36;100.00
69257;BME280;56376;53.356;-1.748;2024-01-07T12:44:38;100903.81;;;3.38;100.00